Time;durP1;ratioP1;P1;durP2;ratioP2;P2;SDS_P1;SDS_P2;PMS_P1;PMS_P2;Temp;Humidity;BMP_temperature;BMP_pressure;BME280_temperature;BME280_humidity;BME280_pressure;Samples;Min_cycle;Max_cycle;Signal;HPM_P1;HPM_P2
2022/05/08 00:00:33;;;;;;;28.33;25.37;;;17.60;99.90;;;17.84;61.46;101993.34;4929095;28;101960;-72
2022/05/08 00:02:59;;;;;;;28.43;25.70;;;17.60;99.90;;;17.82;61.43;102000.56;4948066;28;116138;-72
2022/05/08 00:05:25;;;;;;;29.70;26.23;;;17.60;99.90;;;17.77;61.99;101991.88;4926232;28;109298;-72
2022/05/08 00:07:51;;;;;;;30.60;26.03;;;17.50;99.90;;;17.75;61.63;101999.94;4928445;28;96957;-72
2022/05/08 00:10:18;;;;;;;29.93;26.83;;;17.50;99.90;;;17.71;61.90;102002.81;4944873;28;97620;-73
2022/05/08 00:12:44;;;;;;;29.03;26.03;;;17.50;99.90;;;17.66;62.18;101999.47;4949953;28;99697;-72
2022/05/08 00:15:10;;;;;;;29.97;26.80;;;17.40;99.90;;;17.62;62.45;102004.06;4932577;28;98222;-72
2022/05/08 00:17:36;;;;;;;31.37;28.00;;;17.40;99.90;;;17.56;62.59;101996.31;4944669;28;98603;-72
2022/05/08 00:20:05;;;;;;;32.87;29.37;;;17.30;99.90;;;17.57;61.47;102006.06;4931162;28;99862;-72
2022/05/08 00:22:31;;;;;;;30.27;27.03;;;17.30;99.90;;;17.63;59.38;102004.91;4933049;28;98436;-72
2022/05/08 00:24:57;;;;;;;31.00;26.60;;;17.40;99.90;;;17.62;61.91;102008.53;4947444;28;111936;-72
2022/05/08 00:27:23;;;;;;;28.97;25.87;;;17.40;99.90;;;17.63;60.58;102004.91;4924928;28;101972;-72
2022/05/08 00:29:49;;;;;;;30.17;27.00;;;17.40;99.90;;;17.57;61.75;102010.53;4928528;28;121997;-73
2022/05/08 00:32:15;;;;;;;31.23;27.93;;;17.30;99.90;;;17.54;61.73;102007.06;4942708;28;120331;-73
2022/05/08 00:34:41;;;;;;;32.53;26.87;;;17.30;99.90;;;17.57;61.82;102010.53;4929981;28;126721;-73
2022/05/08 00:37:07;;;;;;;30.67;26.67;;;17.30;99.90;;;17.58;61.58;102009.59;4957159;28;97360;-72
2022/05/08 00:39:32;;;;;;;29.87;26.67;;;17.30;99.90;;;17.52;61.96;102005.41;4939263;28;97523;-73
2022/05/08 00:42:01;;;;;;;30.00;26.80;;;17.30;99.90;;;17.47;62.41;102010.91;4957615;28;97495;-72
2022/05/08 00:44:27;;;;;;;31.93;28.10;;;17.20;99.90;;;17.42;62.28;102007.59;4954551;28;102586;-73
2022/05/08 00:46:53;;;;;;;32.23;27.60;;;17.20;99.90;;;17.37;63.02;102003.41;4941508;28;103709;-72
2022/05/08 00:49:18;;;;;;;30.13;26.93;;;17.10;99.90;;;17.35;62.74;102007.91;4938736;28;97198;-73
2022/05/08 00:51:47;;;;;;;31.13;27.90;;;17.10;99.90;;;17.34;63.03;102004.38;4958692;28;122230;-73
2022/05/08 00:54:14;;;;;;;29.00;26.07;;;17.10;99.90;;;17.38;62.35;102011.34;4940761;28;98353;-74
2022/05/08 00:56:41;;;;;;;30.43;27.10;;;17.10;99.90;;;17.37;62.95;102003.41;4938969;28;97251;-72
2022/05/08 00:59:07;;;;;;;31.23;27.97;;;17.10;99.90;;;17.35;62.90;102006.09;4959605;28;96889;-72
2022/05/08 01:01:33;;;;;;;32.20;28.67;;;17.10;99.90;;;17.36;62.73;102007.88;4922341;28;98498;-73
2022/05/08 01:03:59;;;;;;;31.77;27.70;;;17.10;99.90;;;17.36;62.90;101999.88;4957583;28;116244;-72
2022/05/08 01:06:26;;;;;;;31.23;28.13;;;17.10;99.90;;;17.39;62.70;101996.19;4954305;28;110203;-73
2022/05/08 01:08:52;;;;;;;33.43;29.93;;;17.10;99.90;;;17.39;62.58;101997.06;4929459;28;97033;-73
2022/05/08 01:11:18;;;;;;;34.23;30.63;;;17.20;99.90;;;17.38;63.35;101994.47;4936610;28;97325;-73
2022/05/08 01:13:45;;;;;;;33.77;30.20;;;17.10;99.90;;;17.41;62.83;102000.53;4958107;28;97400;-72
2022/05/08 01:16:17;;;;;;;31.07;27.70;;;17.20;99.90;;;17.42;62.21;101996.06;4957662;28;98281;-73
2022/05/08 01:18:48;;;;;;;33.43;29.27;;;17.20;99.90;;;17.41;62.27;101997.84;4956724;28;98276;-73
2022/05/08 01:21:17;;;;;;;33.53;30.13;;;17.20;99.90;;;17.42;62.49;101996.91;4956161;28;97459;-73
2022/05/08 01:23:44;;;;;;;32.43;28.93;;;17.20;99.90;;;17.43;62.25;102004.00;4942475;28;97307;-72
2022/05/08 01:26:11;;;;;;;30.93;27.83;;;17.20;99.90;;;17.46;62.52;101997.66;4942078;28;97231;-72
2022/05/08 01:28:38;;;;;;;32.17;28.87;;;17.20;99.90;;;17.50;59.17;102008.16;4937511;28;96722;-72
2022/05/08 01:31:03;;;;;;;32.07;28.67;;;17.30;99.90;;;17.50;62.62;102005.47;4938212;28;114114;-72
2022/05/08 01:33:29;;;;;;;32.33;28.47;;;17.30;99.90;;;17.53;62.14;102010.69;4934807;28;102004;-73
2022/05/08 01:35:56;;;;;;;33.13;29.57;;;17.30;99.90;;;17.52;62.74;102003.59;4957910;28;116254;-72
2022/05/08 01:38:23;;;;;;;33.60;29.40;;;17.30;99.90;;;17.53;62.43;102002.66;4955651;28;96811;-73
2022/05/08 01:40:50;;;;;;;32.17;28.67;;;17.30;99.90;;;17.56;62.30;102009.66;4957777;28;96870;-73
2022/05/08 01:43:16;;;;;;;32.37;28.83;;;17.30;99.90;;;17.59;62.01;102008.66;4939602;28;97792;-73
2022/05/08 01:45:42;;;;;;;31.87;28.47;;;17.40;99.90;;;17.60;60.75;102010.38;4939826;28;118938;-73
2022/05/08 01:48:21;;;;;;;32.33;29.03;;;17.40;99.90;;;17.64;61.78;102006.66;4956782;28;123640;-72
2022/05/08 01:50:52;;;;;;;32.37;28.97;;;17.40;99.90;;;17.65;62.02;102013.72;4939328;28;96853;-73
2022/05/08 01:53:20;;;;;;;32.40;28.93;;;17.40;99.90;;;17.63;62.61;102019.13;4918513;28;97596;-73
2022/05/08 01:55:49;;;;;;;32.93;29.47;;;17.40;99.90;;;17.64;62.04;102018.19;4938412;28;98205;-72
2022/05/08 01:58:18;;;;;;;29.97;26.87;;;17.40;99.90;;;17.63;62.07;102020.94;4955033;28;97383;-73
2022/05/08 02:00:45;;;;;;;32.27;28.87;;;17.40;99.90;;;17.67;60.95;102015.41;4957948;28;96670;-73
2022/05/08 02:03:12;;;;;;;32.47;29.17;;;17.40;99.90;;;17.66;62.05;102015.47;4944417;28;97090;-73
2022/05/08 02:05:42;;;;;;;32.60;29.23;;;17.40;99.90;;;17.68;61.56;102018.94;4954150;28;99942;-73
2022/05/08 02:08:09;;;;;;;32.77;28.93;;;17.40;99.90;;;17.65;61.99;102019.06;4931578;28;97055;-72
2022/05/08 02:10:36;;;;;;;18.23;16.47;;;17.40;99.90;;;17.73;54.25;102024.97;4920762;28;97410;-73
2022/05/08 02:13:02;;;;;;;28.50;25.23;;;17.50;99.90;;;17.79;54.54;102012.25;4957441;28;97810;-72
2022/05/08 02:15:31;;;;;;;27.77;24.80;;;17.60;99.90;;;17.84;55.97;102014.69;4953299;28;97768;-73
2022/05/08 02:18:03;;;;;;;27.10;24.20;;;17.60;99.90;;;17.88;56.85;102021.63;4958719;28;96772;-73
2022/05/08 02:20:29;;;;;;;29.03;25.80;;;17.70;99.90;;;17.82;59.61;102016.56;4936187;28;98077;-73
2022/05/08 02:22:55;;;;;;;30.83;25.90;;;17.60;99.90;;;17.77;59.86;102019.41;4957324;28;97023;-72
2022/05/08 02:25:21;;;;;;;23.30;20.80;;;17.50;99.90;;;17.80;54.08;102021.09;4936889;28;111391;-73
2022/05/08 02:27:51;;;;;;;27.60;24.70;;;17.50;99.90;;;17.80;55.94;102026.44;4950754;28;103293;-72
2022/05/08 02:30:20;;;;;;;25.47;22.77;;;17.60;99.90;;;17.84;56.15;102025.38;4939934;28;96935;-73
2022/05/08 02:32:47;;;;;;;21.43;19.17;;;17.60;99.90;;;17.85;53.46;102016.44;4924873;28;98503;-73
2022/05/08 02:35:13;;;;;;;26.77;21.63;;;17.60;99.90;;;17.93;55.56;102030.28;4956715;28;98285;-72
2022/05/08 02:37:40;;;;;;;11.57;10.47;;;17.70;99.90;;;17.95;53.18;102025.75;4955432;28;96676;-73
2022/05/08 02:40:10;;;;;;;23.90;20.77;;;17.70;99.90;;;17.96;56.53;102024.81;4941486;28;97019;-73
2022/05/08 02:42:40;;;;;;;23.40;20.97;;;17.80;99.90;;;17.89;56.91;102018.00;4938001;28;97441;-73
2022/05/08 02:45:10;;;;;;;24.77;22.13;;;17.60;99.90;;;17.83;56.39;102024.50;4958154;28;97614;-72
2022/05/08 02:47:37;;;;;;;25.47;21.43;;;17.60;99.90;;;17.76;58.29;102024.81;4954593;28;102675;-72
2022/05/08 02:50:05;;;;;;;25.13;22.47;;;17.50;99.90;;;17.68;58.84;102024.28;4940913;28;96728;-73
2022/05/08 02:52:31;;;;;;;24.83;22.27;;;17.40;99.90;;;17.62;59.06;102036.06;4936909;28;97701;-72
2022/05/08 02:54:57;;;;;;;24.33;21.83;;;17.30;99.90;;;17.58;57.77;102038.94;4924203;28;115632;-72
2022/05/08 03:00:08;;;;;;;23.27;20.90;;;17.20;99.90;;;17.45;59.65;102039.47;4946909;28;97317;-73
2022/05/08 03:02:36;;;;;;;25.07;20.27;;;17.20;99.90;;;17.39;59.99;102034.41;4938690;28;99292;-73
2022/05/08 03:05:03;;;;;;;24.43;19.70;;;17.10;99.90;;;17.41;57.53;102032.53;4922357;28;98083;-73
2022/05/08 03:07:29;;;;;;;22.67;20.27;;;17.10;99.90;;;17.36;59.70;102041.66;4931263;28;98511;-72
2022/05/08 03:09:56;;;;;;;21.50;18.00;;;17.10;99.90;;;17.35;55.91;102037.25;4947444;28;97000;-72
2022/05/08 03:12:21;;;;;;;20.53;18.03;;;17.10;99.90;;;17.32;58.76;102042.72;4958284;28;97123;-73
2022/05/08 03:14:47;;;;;;;20.63;17.27;;;17.10;99.90;;;17.31;58.48;102041.84;4942973;28;126712;-72
2022/05/08 03:17:13;;;;;;;11.17;9.60;;;17.00;99.90;;;17.36;54.39;102041.66;4939839;28;119320;-72
2022/05/08 03:19:38;;;;;;;18.50;15.93;;;17.10;99.90;;;17.33;57.30;102047.97;4936389;28;113546;-72
2022/05/08 03:22:06;;;;;;;19.23;15.87;;;17.10;99.90;;;17.29;58.09;102042.84;4960067;28;122536;-73
2022/05/08 03:24:31;;;;;;;17.57;14.50;;;17.00;99.90;;;17.26;57.69;102049.19;4940292;28;97619;-73
2022/05/08 03:26:57;;;;;;;14.97;12.23;;;17.00;99.90;;;17.25;56.44;102047.44;4941876;28;122800;-72
2022/05/08 03:29:25;;;;;;;17.93;14.83;;;16.90;99.90;;;17.21;57.16;102045.81;4958110;28;96940;-72
2022/05/08 03:31:51;;;;;;;19.40;14.70;;;16.90;99.90;;;17.17;56.40;102049.56;4960803;28;98065;-73
2022/05/08 03:34:17;;;;;;;15.80;13.80;;;16.80;99.90;;;17.21;57.06;102052.06;4957915;28;97023;-73
2022/05/08 03:36:43;;;;;;;16.27;13.93;;;16.90;99.90;;;17.20;56.55;102054.75;4961365;28;97241;-73
2022/05/08 03:39:11;;;;;;;18.93;13.83;;;16.80;99.90;;;17.14;57.42;102044.34;4942029;28;96776;-73
2022/05/08 03:41:38;;;;;;;18.60;14.20;;;16.80;99.90;;;17.09;57.06;102043.69;4941814;28;96813;-72
2022/05/08 03:44:03;;;;;;;16.07;13.63;;;16.70;99.90;;;17.03;57.76;102041.25;4961046;28;96859;-72
2022/05/08 03:46:29;;;;;;;16.30;13.77;;;16.70;99.90;;;17.05;57.04;102050.03;4924412;28;97097;-72
2022/05/08 03:48:55;;;;;;;17.70;14.90;;;16.70;99.90;;;16.95;57.86;102050.44;4960322;28;123198;-72
2022/05/08 03:51:21;;;;;;;15.63;14.00;;;16.60;99.90;;;16.91;57.76;102053.28;4940815;28;100970;-73
2022/05/08 03:53:47;;;;;;;16.17;13.33;;;16.60;99.90;;;16.90;57.89;102056.88;4961074;28;96644;-72
2022/05/08 03:56:13;;;;;;;16.43;14.00;;;16.50;99.90;;;16.88;57.71;102054.25;4945593;28;97005;-72
2022/05/08 03:58:40;;;;;;;17.03;13.20;;;16.50;99.90;;;16.83;57.64;102056.25;4958630;28;97603;-72
2022/05/08 04:01:06;;;;;;;17.30;13.60;;;16.50;99.90;;;16.82;57.73;102049.19;4942522;28;97965;-73
2022/05/08 04:03:32;;;;;;;15.50;13.43;;;16.50;99.90;;;16.77;57.98;102053.81;4938248;28;97117;-72
2022/05/08 04:05:58;;;;;;;18.23;13.30;;;16.40;99.90;;;16.77;57.55;102056.47;4959605;28;96835;-72
2022/05/08 04:08:24;;;;;;;16.73;13.93;;;16.40;99.90;;;16.72;57.93;102066.47;4955833;28;112530;-73
2022/05/08 04:10:49;;;;;;;15.83;14.13;;;16.40;99.90;;;16.71;57.98;102067.38;4937926;28;116396;-72
2022/05/08 04:13:15;;;;;;;15.50;12.80;;;16.40;99.90;;;16.70;57.93;102060.31;4928144;28;112502;-73
2022/05/08 04:18:29;;;;;;;16.93;13.70;;;16.40;99.90;;;16.82;57.41;102064.31;4942844;28;97232;-72
2022/05/08 04:20:55;;;;;;;16.67;14.00;;;16.50;99.90;;;16.82;57.61;102058.97;4957040;28;103094;-72
2022/05/08 04:26:04;;;;;;;15.67;13.97;;;16.50;99.90;;;16.76;57.76;102070.72;4939635;28;96869;-72
2022/05/08 04:28:30;;;;;;;16.10;13.77;;;16.40;99.90;;;16.74;57.87;102067.25;4941379;28;107813;-72
2022/05/08 04:30:56;;;;;;;14.00;12.60;;;16.50;99.90;;;16.70;58.08;102071.00;4959652;28;118559;-72
2022/05/08 04:33:22;;;;;;;14.97;13.17;;;16.40;99.90;;;16.68;58.42;102077.31;4938558;28;123908;-73
2022/05/08 04:35:48;;;;;;;16.07;14.20;;;16.40;99.90;;;16.64;58.86;102081.84;4959715;28;97152;-73
2022/05/08 04:38:13;;;;;;;16.50;14.20;;;16.30;99.90;;;16.61;59.13;102081.94;4941726;28;111430;-72
2022/05/08 04:40:42;;;;;;;18.97;14.53;;;16.30;99.90;;;16.62;59.01;102083.69;4955541;28;130361;-72
2022/05/08 04:43:09;;;;;;;17.10;14.70;;;16.30;99.90;;;16.58;57.96;102090.06;4933176;28;97053;-73
2022/05/08 04:45:35;;;;;;;15.87;14.03;;;16.30;99.90;;;16.57;57.88;102093.66;4949532;28;96980;-72
2022/05/08 04:48:00;;;;;;;16.70;14.73;;;16.30;99.90;;;16.56;57.92;102090.13;4944852;28;97095;-72
2022/05/08 04:50:26;;;;;;;13.00;10.63;;;16.30;99.90;;;16.62;56.36;102089.00;4955723;28;106084;-73
2022/05/08 04:52:52;;;;;;;17.63;13.27;;;16.30;99.90;;;16.63;56.96;102096.06;4964805;28;97103;-72
2022/05/08 04:55:18;;;;;;;17.87;14.73;;;16.30;99.90;;;16.62;56.63;102094.34;4956789;28;97646;-73
2022/05/08 04:57:43;;;;;;;18.37;13.50;;;16.30;99.90;;;16.63;56.79;102098.75;4958710;28;97237;-72
2022/05/08 05:00:10;;;;;;;13.93;10.30;;;16.30;99.90;;;16.69;56.04;102103.88;4958438;28;121397;-73
2022/05/08 05:02:36;;;;;;;18.10;13.60;;;16.40;99.90;;;16.65;56.41;102105.78;4938623;28;99941;-73
2022/05/08 05:05:02;;;;;;;16.17;12.63;;;16.30;99.90;;;16.72;56.36;102111.75;4942204;28;97164;-72
2022/05/08 05:07:28;;;;;;;19.23;14.63;;;16.40;99.90;;;16.72;55.89;102106.44;4937642;28;97365;-73
2022/05/08 05:09:54;;;;;;;18.00;13.50;;;16.40;99.90;;;16.72;56.01;102108.22;4959096;28;96711;-73
2022/05/08 05:12:20;;;;;;;17.33;13.37;;;16.40;99.90;;;16.78;55.65;102116.88;4955301;28;99016;-73
2022/05/08 05:14:45;;;;;;;20.17;13.90;;;16.50;99.90;;;16.79;56.18;102123.94;4940117;28;96985;-73
2022/05/08 05:17:11;;;;;;;18.90;13.23;;;16.50;99.90;;;16.91;55.02;102126.09;4940793;28;96849;-72
2022/05/08 05:19:37;;;;;;;11.93;9.60;;;16.60;99.90;;;16.93;54.60;102128.72;4956083;28;97575;-73
2022/05/08 05:22:03;;;;;;;20.90;13.13;;;16.60;99.90;;;16.97;54.68;102126.81;4958878;28;97077;-72
2022/05/08 05:24:30;;;;;;;5.27;4.77;;;16.60;99.90;;;17.01;54.42;102129.28;4919410;28;112669;-73
2022/05/08 05:26:56;;;;;;;11.67;9.40;;;16.60;99.90;;;17.12;53.35;102127.06;4959535;28;97576;-72
2022/05/08 05:29:22;;;;;;;15.27;11.97;;;16.80;99.90;;;17.23;53.66;102145.31;4931824;28;98409;-73
2022/05/08 05:31:47;;;;;;;19.07;13.83;;;16.90;99.90;;;17.21;53.20;102137.38;4958284;28;100480;-73
2022/05/08 05:34:13;;;;;;;14.50;11.73;;;16.90;99.90;;;17.29;53.53;102134.38;4955244;28;99609;-72
2022/05/08 05:36:39;;;;;;;8.73;7.23;;;16.90;99.90;;;17.38;53.17;102135.81;4936795;28;97788;-73
2022/05/08 05:39:05;;;;;;;18.67;13.50;;;17.10;99.90;;;17.35;52.75;102155.47;4957666;28;121931;-73
2022/05/08 05:41:31;;;;;;;17.80;13.07;;;17.10;99.90;;;17.39;53.07;102151.78;4952485;28;97066;-73
2022/05/08 05:43:57;;;;;;;20.20;13.87;;;17.10;99.90;;;17.31;52.37;102161.00;4932006;28;97374;-73
2022/05/08 05:49:07;;;;;;;19.03;12.63;;;16.90;99.90;;;17.21;53.30;102158.72;4957682;28;97056;-73
2022/05/08 05:51:33;;;;;;;17.87;14.07;;;16.80;99.90;;;17.08;53.44;102156.59;4920627;28;97202;-73
2022/05/08 05:53:58;;;;;;;19.93;14.33;;;16.80;99.90;;;17.04;52.94;102160.28;4939921;28;97211;-73
2022/05/08 05:56:24;;;;;;;21.47;14.43;;;16.70;99.90;;;17.01;52.99;102160.41;4936603;28;114750;-73
2022/05/08 05:58:50;;;;;;;14.83;13.10;;;16.60;99.90;;;17.01;53.70;102160.41;4940258;28;98642;-73
2022/05/08 06:01:17;;;;;;;19.70;14.10;;;16.60;99.90;;;16.90;53.89;102158.16;4936457;28;125561;-74
2022/05/08 06:03:42;;;;;;;24.37;15.13;;;16.50;99.90;;;16.80;53.83;102162.97;4958377;28;97798;-73
2022/05/08 06:06:08;;;;;;;19.00;14.73;;;16.50;99.90;;;16.83;53.84;102157.53;4946407;28;114992;-73
2022/05/08 06:08:34;;;;;;;18.77;14.17;;;16.50;99.90;;;16.78;54.27;102162.16;4950457;28;113355;-72
2022/05/08 06:11:00;;;;;;;19.83;14.97;;;16.40;99.90;;;16.81;54.09;102163.84;4938887;28;98402;-72
2022/05/08 06:13:25;;;;;;;18.93;14.17;;;16.40;99.90;;;16.87;53.42;102158.28;4955890;28;115857;-73
2022/05/08 06:15:51;;;;;;;20.50;14.07;;;16.60;99.90;;;16.85;54.01;102169.00;4941013;28;97121;-72
2022/05/08 06:18:18;;;;;;;20.13;14.47;;;16.50;99.90;;;16.83;53.61;102164.66;4952659;28;98745;-73
2022/05/08 06:20:44;;;;;;;19.33;13.70;;;16.50;99.90;;;16.83;54.01;102170.84;4947707;28;97259;-72
2022/05/08 06:23:09;;;;;;;19.40;13.93;;;16.50;99.90;;;16.82;54.31;102166.44;4962131;28;97699;-72
2022/05/08 06:25:35;;;;;;;20.40;14.20;;;16.50;99.90;;;16.81;54.26;102175.38;4953763;28;114029;-72
2022/05/08 06:28:01;;;;;;;18.87;13.83;;;16.50;99.90;;;16.80;54.46;102170.97;4940745;28;97512;-72
2022/05/08 06:30:26;;;;;;;20.53;13.33;;;16.50;99.90;;;16.80;54.26;102168.31;4953811;28;116371;-72
2022/05/08 06:32:52;;;;;;;17.70;13.57;;;16.50;99.90;;;16.78;54.00;102164.84;4940100;28;122141;-72
2022/05/08 06:35:18;;;;;;;20.63;15.03;;;16.40;99.90;;;16.74;54.22;102175.66;4939527;28;116696;-72
2022/05/08 06:37:44;;;;;;;16.43;13.10;;;16.40;99.90;;;16.78;54.33;102167.50;4957170;28;115426;-73
2022/05/08 06:40:10;;;;;;;18.07;13.10;;;16.50;99.90;;;16.72;54.69;102175.72;4925940;28;99171;-73
2022/05/08 06:42:35;;;;;;;18.60;13.20;;;16.40;99.90;;;16.72;54.46;102173.03;4937573;28;97342;-73
2022/05/08 06:45:02;;;;;;;19.37;13.13;;;16.40;99.90;;;16.77;54.41;102165.72;4943587;28;119377;-72
2022/05/08 06:47:28;;;;;;;18.30;12.93;;;16.50;99.90;;;16.83;54.38;102168.19;4936992;28;97594;-72
2022/05/08 06:49:54;;;;;;;16.73;12.40;;;16.50;99.90;;;16.94;53.72;102175.78;4973169;28;124465;-72
2022/05/08 06:52:19;;;;;;;18.60;12.87;;;16.60;99.90;;;16.98;53.48;102176.53;4961869;28;96592;-73
2022/05/08 06:54:45;;;;;;;19.77;13.03;;;16.60;99.90;;;16.95;53.62;102183.72;4945881;28;96817;-72
2022/05/08 06:57:12;;;;;;;18.70;12.57;;;16.70;99.90;;;17.01;53.55;102187.94;4961365;28;97963;-73
2022/05/08 07:02:23;;;;;;;18.37;12.50;;;16.70;99.90;;;16.97;53.60;102190.78;4939354;28;96963;-72
2022/05/08 07:04:50;;;;;;;17.93;11.57;;;16.70;99.90;;;17.01;53.26;102189.72;4957614;28;97704;-72
2022/05/08 07:07:16;;;;;;;18.30;12.10;;;16.70;99.90;;;17.01;53.00;102198.59;4957906;28;98756;-73
2022/05/08 07:09:42;;;;;;;17.77;12.20;;;16.70;99.90;;;17.10;52.52;102197.38;4944510;28;98219;-72
2022/05/08 07:12:08;;;;;;;7.77;6.50;;;16.90;99.90;;;17.27;52.99;102205.59;4952676;28;115490;-72
2022/05/08 07:14:34;;;;;;;18.10;11.70;;;17.00;99.90;;;17.33;52.07;102213.34;4945604;28;97187;-72
2022/05/08 07:17:00;;;;;;;21.07;11.17;;;17.20;99.90;;;17.37;52.13;102206.97;4945625;28;124461;-72
2022/05/08 07:19:26;;;;;;;9.87;6.90;;;17.20;99.90;;;17.46;52.00;102211.94;4927041;28;126200;-72
2022/05/08 07:21:52;;;;;;;15.63;9.13;;;17.30;99.90;;;17.57;51.78;102213.31;4928266;28;123196;-72
2022/05/08 07:24:17;;;;;;;14.87;9.07;;;17.40;99.90;;;17.66;51.27;102213.81;4946479;28;97239;-72
2022/05/08 07:26:45;;;;;;;17.73;10.87;;;17.50;99.90;;;17.69;51.31;102208.38;4947373;28;115036;-72
2022/05/08 07:29:11;;;;;;;8.90;7.03;;;17.60;99.90;;;17.76;50.82;102206.31;4926003;28;98729;-72
2022/05/08 07:31:38;;;;;;;10.07;8.00;;;17.60;99.90;;;17.78;51.00;102215.13;4921856;28;99174;-72
2022/05/08 07:36:48;;;;;;;15.87;10.33;;;17.60;99.70;;;17.80;50.42;102215.94;4942516;28;101695;-72
2022/05/08 07:39:14;;;;;;;5.30;4.80;;;17.70;99.80;;;17.87;50.97;102221.88;4929712;28;104922;-74
2022/05/08 07:41:40;;;;;;;16.90;10.40;;;17.70;99.90;;;17.88;50.50;102219.16;4943889;28;119097;-73
2022/05/08 07:44:06;;;;;;;22.03;10.77;;;17.80;99.70;;;17.82;50.30;102219.41;4930419;28;97456;-72
2022/05/08 07:46:32;;;;;;;13.43;8.60;;;17.70;99.80;;;17.90;50.68;102227.97;4934643;28;99096;-72
2022/05/08 07:48:57;;;;;;;5.27;4.77;;;17.70;99.70;;;17.92;50.56;102215.41;4947012;28;97163;-72
2022/05/08 07:51:23;;;;;;;18.23;11.13;;;17.80;99.90;;;17.95;50.06;102222.44;4944289;28;112509;-73
2022/05/08 07:53:49;;;;;;;17.00;10.20;;;17.80;99.30;;;17.96;50.56;102233.06;4919714;28;118895;-72
2022/05/08 07:56:15;;;;;;;9.00;6.60;;;17.80;99.70;;;17.98;50.50;102227.66;4945367;28;111167;-74
2022/05/08 07:58:41;;;;;;;5.63;4.90;;;17.80;99.60;;;18.00;50.22;102223.97;4944358;28;120940;-75
2022/05/08 08:01:07;;;;;;;17.33;9.20;;;17.80;99.50;;;17.93;51.06;102227.81;4946208;28;97934;-72
2022/05/08 08:03:33;;;;;;;5.93;4.73;;;17.80;99.90;;;17.91;50.66;102236.84;4943334;28;97373;-72
2022/05/08 08:06:01;;;;;;;13.97;8.20;;;17.70;99.80;;;17.99;50.25;102232.06;4937395;28;123680;-72
2022/05/08 08:08:26;;;;;;;17.33;7.73;;;17.80;99.00;;;17.98;50.46;102230.34;4927827;28;98441;-72
2022/05/08 08:10:56;;;;;;;11.27;6.30;;;17.80;99.70;;;18.02;50.33;102232.78;4948299;28;98245;-72
2022/05/08 08:13:24;;;;;;;17.93;8.43;;;17.90;99.60;;;18.01;49.37;102232.88;4930313;28;97119;-72
2022/05/08 08:15:50;;;;;;;6.03;4.87;;;17.90;98.80;;;18.09;50.06;102239.63;4927588;28;98191;-72
2022/05/08 08:18:18;;;;;;;13.87;8.23;;;17.90;99.40;;;18.13;49.71;102243.03;4928987;28;98667;-73
2022/05/08 08:20:44;;;;;;;5.13;4.47;;;18.00;98.90;;;18.20;49.80;102246.31;4945100;28;98299;-72
2022/05/08 08:23:10;;;;;;;5.70;4.20;;;18.10;99.00;;;18.24;49.60;102240.78;4946962;28;115148;-72
2022/05/08 08:25:37;;;;;;;4.97;4.10;;;18.20;98.80;;;18.32;49.50;102251.13;4941795;28;101868;-72
2022/05/08 08:28:03;;;;;;;9.90;6.30;;;18.30;98.50;;;18.37;49.57;102250.00;4930686;28;96950;-72
2022/05/08 08:30:29;;;;;;;8.13;4.70;;;18.40;98.60;;;18.44;49.34;102261.28;4940568;28;97653;-72
2022/05/08 08:32:55;;;;;;;8.30;4.43;;;18.50;98.30;;;18.51;49.01;102252.06;4948002;28;97326;-72
2022/05/08 08:35:21;;;;;;;4.40;4.00;;;18.60;98.00;;;18.56;48.82;102252.75;4939386;28;97644;-73
2022/05/08 08:37:47;;;;;;;4.77;3.83;;;18.60;98.00;;;18.60;48.67;102257.00;4948133;28;102835;-72
2022/05/08 08:40:13;;;;;;;12.57;7.40;;;18.60;97.90;;;18.65;48.78;102260.38;4945281;28;105483;-73
2022/05/08 08:42:42;;;;;;;13.00;7.73;;;18.70;97.70;;;18.58;47.97;102263.34;4943438;28;97724;-72
2022/05/08 08:47:58;;;;;;;5.70;4.10;;;18.70;97.40;;;18.68;48.35;102249.56;4942043;28;100935;-72
2022/05/08 08:50:28;;;;;;;13.57;7.37;;;18.80;97.60;;;18.69;47.59;102250.44;4938397;28;98401;-73
2022/05/08 08:52:57;;;;;;;8.57;5.00;;;18.80;96.90;;;18.77;48.23;102252.75;4927736;28;98736;-73
2022/05/08 08:55:22;;;;;;;5.23;4.20;;;18.80;97.30;;;18.79;48.30;102253.53;4924377;28;99817;-73
2022/05/08 08:57:49;;;;;;;10.90;7.10;;;18.90;97.40;;;18.78;47.65;102250.00;4946466;28;105313;-72
2022/05/08 09:00:18;;;;;;;16.87;7.27;;;18.80;97.00;;;18.76;48.15;102243.00;4945293;28;97618;-72
2022/05/08 09:02:44;;;;;;;14.43;6.73;;;18.70;97.50;;;18.75;47.89;102243.94;4906396;28;98271;-72
2022/05/08 09:05:11;;;;;;;12.73;5.80;;;18.80;97.20;;;18.79;48.02;102246.38;4919873;28;98032;-72
2022/05/08 09:07:52;;;;;;;8.13;4.93;;;18.80;97.10;;;18.84;48.04;102243.53;4942325;28;97441;-72
2022/05/08 09:10:27;;;;;;;19.87;9.67;;;18.90;97.30;;;18.84;48.23;102244.41;4942547;28;97860;-73
2022/05/08 09:12:53;;;;;;;7.67;4.70;;;18.90;97.40;;;18.83;48.28;102245.34;4930584;28;97456;-72
2022/05/08 09:15:32;;;;;;;13.30;6.60;;;18.90;97.20;;;18.79;47.27;102240.19;4942747;28;99071;-73
2022/05/08 09:18:09;;;;;;;15.37;7.00;;;18.80;96.50;;;18.77;47.63;102244.72;4946239;28;97375;-72
2022/05/08 09:20:40;;;;;;;15.97;6.67;;;18.70;96.80;;;18.73;48.01;102246.69;4918079;28;96979;-72
2022/05/08 09:23:14;;;;;;;11.63;6.23;;;18.70;97.00;;;18.75;48.15;102251.94;4936876;28;98394;-72
2022/05/08 09:25:59;;;;;;;9.33;5.60;;;18.70;97.20;;;18.70;48.38;102247.69;4943033;28;101778;-73
2022/05/08 09:28:27;;;;;;;11.87;6.40;;;18.70;97.40;;;18.70;47.91;102247.69;4926600;28;99219;-72
2022/05/08 09:31:00;;;;;;;9.73;5.37;;;18.70;97.00;;;18.66;48.39;102248.78;4927628;28;97891;-72
2022/05/08 09:33:29;;;;;;;14.70;6.87;;;18.60;97.50;;;18.62;48.36;102244.44;4925124;28;97441;-72
2022/05/08 09:35:56;;;;;;;14.03;6.43;;;18.60;97.40;;;18.57;48.14;102246.47;4943001;28;98409;-73
2022/05/08 09:38:40;;;;;;;14.30;6.20;;;18.50;97.00;;;18.59;48.42;102255.28;4924967;28;99169;-73
2022/05/08 09:41:06;;;;;;;12.87;6.23;;;18.50;97.60;;;18.56;47.78;102244.72;4935878;28;99322;-73
2022/05/08 09:43:34;;;;;;;13.37;6.23;;;18.50;96.80;;;18.53;48.40;102242.19;4943933;28;98487;-73
2022/05/08 09:46:02;;;;;;;8.13;4.53;;;18.40;97.20;;;18.58;48.42;102253.53;4945179;28;99572;-72
2022/05/08 09:48:30;;;;;;;12.03;5.27;;;18.50;97.60;;;18.59;48.38;102247.25;4941581;28;97396;-73
2022/05/08 09:50:59;;;;;;;5.90;4.10;;;18.60;97.20;;;18.63;48.25;102254.22;4943004;28;97559;-72
2022/05/08 09:53:26;;;;;;;6.97;3.80;;;18.60;97.00;;;18.66;48.34;102243.44;4941326;28;98761;-72
2022/05/08 09:55:54;;;;;;;5.30;3.73;;;18.70;97.00;;;18.67;48.26;102242.47;4941514;28;98975;-72
2022/05/08 09:58:21;;;;;;;6.10;3.77;;;18.80;97.00;;;18.55;48.65;102248.34;4938040;28;98296;-72
2022/05/08 10:00:48;;;;;;;3.97;2.87;;;18.80;97.00;;;18.67;48.35;102239.81;4942844;28;97754;-73
2022/05/08 10:03:21;;;;;;;6.23;3.37;;;18.80;96.80;;;18.75;47.09;102239.44;4944197;28;98406;-72
2022/05/08 10:05:48;;;;;;;4.53;3.33;;;18.90;96.00;;;18.81;48.14;102243.69;4921462;28;100187;-72
2022/05/08 10:08:17;;;;;;;6.73;3.63;;;18.90;96.60;;;18.76;48.23;102234.97;4924774;28;97416;-72
2022/05/08 10:14:04;;;;;;;4.13;2.97;;;19.00;95.70;;;18.82;47.91;102232.91;4936066;28;97903;-74
2022/05/08 10:16:49;;;;;;;10.17;3.80;;;19.00;96.50;;;18.90;46.23;102232.53;4905501;28;98118;-73
2022/05/08 10:19:21;;;;;;;3.57;3.00;;;19.00;95.00;;;18.93;47.68;102240.41;4941339;28;97408;-73
2022/05/08 10:24:36;;;;;;;3.97;2.73;;;19.10;96.10;;;18.93;47.47;102232.41;4941594;28;98206;-73